sensor_id;sensor_type;location;lat;lon;timestamp;noise_LAeq;noise_LA_min;noise_LA_max;noise_LA01;noise_LA95
69609;Laerm;56815;52.320;4.858;2023-04-12T00:00:01;34.74;30.49;46.37;;
69609;Laerm;56815;52.320;4.858;2023-04-12T00:00:11;35.65;32.17;49.01;;
69609;Laerm;56815;52.320;4.858;2023-04-12T00:00:22;34.33;31.75;44.22;;
69609;Laerm;56815;52.320;4.858;2023-04-12T00:00:33;32.70;30.86;37.54;;
69609;Laerm;56815;52.320;4.858;2023-04-12T00:00:44;33.29;30.45;44.00;;
69609;Laerm;56815;52.320;4.858;2023-04-12T00:00:54;34.37;30.46;48.64;;
69609;Laerm;56815;52.320;4.858;2023-04-12T00:01:05;35.92;31.74;45.30;;
69609;Laerm;56815;52.320;4.858;2023-04-12T00:01:15;36.46;32.85;46.09;;
69609;Laerm;56815;52.320;4.858;2023-04-12T00:01:25;34.18;31.93;45.39;;
69609;Laerm;56815;52.320;4.858;2023-04-12T00:01:36;39.38;30.90;62.17;;
69609;Laerm;56815;52.320;4.858;2023-04-12T00:01:46;36.51;31.13;57.36;;
69609;Laerm;56815;52.320;4.858;2023-04-12T00:01:57;36.04;32.24;45.47;;
69609;Laerm;56815;52.320;4.858;2023-04-12T00:02:07;34.35;31.25;44.06;;
69609;Laerm;56815;52.320;4.858;2023-04-12T00:02:17;34.33;31.31;47.28;;
69609;Laerm;56815;52.320;4.858;2023-04-12T00:02:28;34.47;31.08;48.78;;
69609;Laerm;56815;52.320;4.858;2023-04-12T00:02:38;34.08;31.51;44.01;;
69609;Laerm;56815;52.320;4.858;2023-04-12T00:02:49;33.14;30.74;42.62;;
69609;Laerm;56815;52.320;4.858;2023-04-12T00:03:04;34.37;31.20;46.03;;
69609;Laerm;56815;52.320;4.858;2023-04-12T00:03:14;36.35;30.99;48.34;;
69609;Laerm;56815;52.320;4.858;2023-04-12T00:03:29;42.94;33.73;58.71;;
69609;Laerm;56815;52.320;4.858;2023-04-12T00:03:42;34.98;31.89;46.38;;
69609;Laerm;56815;52.320;4.858;2023-04-12T00:03:59;35.28;31.20;46.52;;
69609;Laerm;56815;52.320;4.858;2023-04-12T00:04:13;40.34;35.41;51.96;;
69609;Laerm;56815;52.320;4.858;2023-04-12T00:04:25;41.36;35.83;52.03;;
69609;Laerm;56815;52.320;4.858;2023-04-12T00:04:37;37.43;32.97;45.50;;
69609;Laerm;56815;52.320;4.858;2023-04-12T00:04:48;36.76;33.59;46.20;;
69609;Laerm;56815;52.320;4.858;2023-04-12T00:05:04;36.81;32.85;48.29;;
69609;Laerm;56815;52.320;4.858;2023-04-12T00:05:14;35.32;32.81;47.44;;
69609;Laerm;56815;52.320;4.858;2023-04-12T00:05:25;34.57;32.57;39.31;;
69609;Laerm;56815;52.320;4.858;2023-04-12T00:05:36;35.91;33.48;41.56;;
69609;Laerm;56815;52.320;4.858;2023-04-12T00:05:47;35.79;33.09;39.33;;
69609;Laerm;56815;52.320;4.858;2023-04-12T00:05:57;35.69;32.41;52.58;;
69609;Laerm;56815;52.320;4.858;2023-04-12T00:06:08;35.07;32.39;49.38;;
69609;Laerm;56815;52.320;4.858;2023-04-12T00:06:19;37.38;32.86;55.57;;
69609;Laerm;56815;52.320;4.858;2023-04-12T00:06:41;35.52;32.62;49.09;;
69609;Laerm;56815;52.320;4.858;2023-04-12T00:06:51;36.29;32.32;46.56;;
69609;Laerm;56815;52.320;4.858;2023-04-12T00:07:03;35.47;32.61;48.51;;
69609;Laerm;56815;52.320;4.858;2023-04-12T00:07:15;34.33;32.50;38.51;;
69609;Laerm;56815;52.320;4.858;2023-04-12T00:07:27;34.31;32.15;40.96;;
69609;Laerm;56815;52.320;4.858;2023-04-12T00:07:38;34.25;31.61;45.77;;
69609;Laerm;56815;52.320;4.858;2023-04-12T00:07:48;36.00;32.52;46.06;;
69609;Laerm;56815;52.320;4.858;2023-04-12T00:08:02;37.16;32.32;54.18;;
69609;Laerm;56815;52.320;4.858;2023-04-12T00:08:14;34.36;32.14;41.31;;
69609;Laerm;56815;52.320;4.858;2023-04-12T00:08:25;36.52;32.92;47.74;;
69609;Laerm;56815;52.320;4.858;2023-04-12T00:08:42;36.62;33.06;52.33;;
69609;Laerm;56815;52.320;4.858;2023-04-12T00:08:55;35.31;31.85;44.66;;
69609;Laerm;56815;52.320;4.858;2023-04-12T00:09:06;35.78;31.99;50.69;;
69609;Laerm;56815;52.320;4.858;2023-04-12T00:09:17;36.57;33.17;53.32;;
69609;Laerm;56815;52.320;4.858;2023-04-12T00:09:28;36.94;33.02;47.51;;
69609;Laerm;56815;52.320;4.858;2023-04-12T00:09:39;38.38;34.11;51.77;;
69609;Laerm;56815;52.320;4.858;2023-04-12T00:09:49;38.39;34.77;45.77;;
69609;Laerm;56815;52.320;4.858;2023-04-12T00:10:00;36.37;33.01;41.79;;
69609;Laerm;56815;52.320;4.858;2023-04-12T00:10:10;35.76;33.24;46.92;;
69609;Laerm;56815;52.320;4.858;2023-04-12T00:10:21;37.70;33.73;51.68;;
69609;Laerm;56815;52.320;4.858;2023-04-12T00:10:31;37.05;33.87;47.58;;
69609;Laerm;56815;52.320;4.858;2023-04-12T00:10:42;35.74;32.74;48.91;;
69609;Laerm;56815;52.320;4.858;2023-04-12T00:10:52;34.59;32.22;41.25;;
69609;Laerm;56815;52.320;4.858;2023-04-12T00:11:02;34.71;32.46;40.61;;
69609;Laerm;56815;52.320;4.858;2023-04-12T00:11:13;35.79;33.07;46.22;;
69609;Laerm;56815;52.320;4.858;2023-04-12T00:11:23;36.70;33.95;46.15;;
69609;Laerm;56815;52.320;4.858;2023-04-12T00:11:33;36.97;32.92;49.93;;
69609;Laerm;56815;52.320;4.858;2023-04-12T00:11:44;36.44;33.40;47.68;;
69609;Laerm;56815;52.320;4.858;2023-04-12T00:11:54;37.03;34.04;46.04;;
69609;Laerm;56815;52.320;4.858;2023-04-12T00:12:06;37.72;34.64;47.08;;
69609;Laerm;56815;52.320;4.858;2023-04-12T00:12:17;37.12;34.01;45.82;;
69609;Laerm;56815;52.320;4.858;2023-04-12T00:12:28;40.08;33.22;60.15;;
69609;Laerm;56815;52.320;4.858;2023-04-12T00:12:38;39.66;34.55;57.37;;
69609;Laerm;56815;52.320;4.858;2023-04-12T00:12:50;37.92;32.98;47.10;;
69609;Laerm;56815;52.320;4.858;2023-04-12T00:13:00;36.82;32.30;49.66;;
69609;Laerm;56815;52.320;4.858;2023-04-12T00:13:10;36.31;33.14;47.53;;
69609;Laerm;56815;52.320;4.858;2023-04-12T00:13:20;39.08;32.74;60.87;;
69609;Laerm;56815;52.320;4.858;2023-04-12T00:13:30;36.72;33.05;49.01;;
69609;Laerm;56815;52.320;4.858;2023-04-12T00:13:41;37.15;34.12;49.09;;
69609;Laerm;56815;52.320;4.858;2023-04-12T00:13:51;36.95;33.41;47.75;;
69609;Laerm;56815;52.320;4.858;2023-04-12T00:14:01;36.96;32.87;52.50;;
69609;Laerm;56815;52.320;4.858;2023-04-12T00:14:12;35.71;33.05;45.67;;
69609;Laerm;56815;52.320;4.858;2023-04-12T00:14:22;37.04;33.29;49.02;;
69609;Laerm;56815;52.320;4.858;2023-04-12T00:14:33;36.42;33.13;46.76;;
69609;Laerm;56815;52.320;4.858;2023-04-12T00:14:44;35.46;32.96;42.04;;
69609;Laerm;56815;52.320;4.858;2023-04-12T00:14:54;36.63;32.01;54.58;;
69609;Laerm;56815;52.320;4.858;2023-04-12T00:15:04;39.42;34.30;48.46;;
69609;Laerm;56815;52.320;4.858;2023-04-12T00:15:15;37.82;32.16;54.38;;
69609;Laerm;56815;52.320;4.858;2023-04-12T00:15:26;33.90;31.48;41.43;;
69609;Laerm;56815;52.320;4.858;2023-04-12T00:15:36;35.35;32.12;46.39;;
69609;Laerm;56815;52.320;4.858;2023-04-12T00:15:47;37.36;32.63;50.01;;
69609;Laerm;56815;52.320;4.858;2023-04-12T00:15:58;42.99;32.52;66.00;;
69609;Laerm;56815;52.320;4.858;2023-04-12T00:16:08;34.32;31.51;44.94;;
69609;Laerm;56815;52.320;4.858;2023-04-12T00:16:18;41.34;32.64;63.37;;
69609;Laerm;56815;52.320;4.858;2023-04-12T00:16:29;41.44;36.14;53.14;;
69609;Laerm;56815;52.320;4.858;2023-04-12T00:16:39;38.27;33.24;47.36;;
69609;Laerm;56815;52.320;4.858;2023-04-12T00:16:50;36.77;32.73;47.04;;
69609;Laerm;56815;52.320;4.858;2023-04-12T00:17:01;36.32;32.39;56.34;;
69609;Laerm;56815;52.320;4.858;2023-04-12T00:17:11;35.26;32.49;47.01;;
69609;Laerm;56815;52.320;4.858;2023-04-12T00:17:21;35.77;32.43;48.55;;
69609;Laerm;56815;52.320;4.858;2023-04-12T00:17:31;38.09;33.92;57.26;;
69609;Laerm;56815;52.320;4.858;2023-04-12T00:17:42;37.18;31.76;54.48;;
69609;Laerm;56815;52.320;4.858;2023-04-12T00:17:53;35.64;31.99;45.33;;
69609;Laerm;56815;52.320;4.858;2023-04-12T00:18:03;34.91;32.04;42.78;;
69609;Laerm;56815;52.320;4.858;2023-04-12T00:18:13;34.87;32.13;44.39;;
69609;Laerm;56815;52.320;4.858;2023-04-12T00:18:24;33.82;31.61;40.96;;
69609;Laerm;56815;52.320;4.858;2023-04-12T00:18:34;36.03;31.13;51.42;;
69609;Laerm;56815;52.320;4.858;2023-04-12T00:18:44;36.14;31.17;52.85;;
69609;Laerm;56815;52.320;4.858;2023-04-12T00:18:55;35.30;30.69;47.59;;
69609;Laerm;56815;52.320;4.858;2023-04-12T00:19:06;34.47;30.93;47.53;;
69609;Laerm;56815;52.320;4.858;2023-04-12T00:19:16;40.10;32.45;55.94;;
69609;Laerm;56815;52.320;4.858;2023-04-12T00:19:27;43.53;31.93;63.50;;
69609;Laerm;56815;52.320;4.858;2023-04-12T00:19:40;36.08;31.20;49.02;;
69609;Laerm;56815;52.320;4.858;2023-04-12T00:19:53;39.59;30.76;63.02;;
69609;Laerm;56815;52.320;4.858;2023-04-12T00:20:05;33.42;30.78;41.23;;
69609;Laerm;56815;52.320;4.858;2023-04-12T00:20:20;34.96;31.41;45.40;;
69609;Laerm;56815;52.320;4.858;2023-04-12T00:20:31;44.05;33.68;55.98;;
69609;Laerm;56815;52.320;4.858;2023-04-12T00:20:41;38.04;33.30;45.29;;
69609;Laerm;56815;52.320;4.858;2023-04-12T00:20:52;35.97;32.05;51.74;;
69609;Laerm;56815;52.320;4.858;2023-04-12T00:21:02;34.96;31.40;48.87;;
69609;Laerm;56815;52.320;4.858;2023-04-12T00:21:13;35.05;31.37;48.19;;
69609;Laerm;56815;52.320;4.858;2023-04-12T00:21:28;34.48;31.44;45.10;;
69609;Laerm;56815;52.320;4.858;2023-04-12T00:21:38;35.21;31.16;48.83;;
69609;Laerm;56815;52.320;4.858;2023-04-12T00:21:49;34.64;31.15;46.99;;
69609;Laerm;56815;52.320;4.858;2023-04-12T00:21:59;34.89;32.62;42.67;;
69609;Laerm;56815;52.320;4.858;2023-04-12T00:22:10;38.80;31.62;54.30;;
69609;Laerm;56815;52.320;4.858;2023-04-12T00:22:21;44.59;31.84;62.25;;
69609;Laerm;56815;52.320;4.858;2023-04-12T00:22:31;40.53;31.60;58.01;;
69609;Laerm;56815;52.320;4.858;2023-04-12T00:22:41;34.14;31.54;43.63;;
69609;Laerm;56815;52.320;4.858;2023-04-12T00:22:52;34.58;31.66;44.87;;
69609;Laerm;56815;52.320;4.858;2023-04-12T00:23:02;34.86;31.51;44.89;;
69609;Laerm;56815;52.320;4.858;2023-04-12T00:23:13;36.18;32.65;54.52;;
69609;Laerm;56815;52.320;4.858;2023-04-12T00:23:23;36.49;33.14;49.07;;
69609;Laerm;56815;52.320;4.858;2023-04-12T00:23:33;35.75;32.18;52.64;;
69609;Laerm;56815;52.320;4.858;2023-04-12T00:23:44;36.35;33.15;48.00;;
69609;Laerm;56815;52.320;4.858;2023-04-12T00:23:55;35.72;31.79;50.97;;
69609;Laerm;56815;52.320;4.858;2023-04-12T00:24:06;34.81;32.38;42.68;;
69609;Laerm;56815;52.320;4.858;2023-04-12T00:24:16;34.51;31.69;42.46;;
69609;Laerm;56815;52.320;4.858;2023-04-12T00:24:27;34.41;32.13;44.94;;
69609;Laerm;56815;52.320;4.858;2023-04-12T00:24:38;35.82;31.49;46.57;;
69609;Laerm;56815;52.320;4.858;2023-04-12T00:24:49;35.29;32.26;43.60;;
69609;Laerm;56815;52.320;4.858;2023-04-12T00:24:59;35.32;31.86;44.82;;
69609;Laerm;56815;52.320;4.858;2023-04-12T00:25:10;34.80;32.70;42.98;;
69609;Laerm;56815;52.320;4.858;2023-04-12T00:25:20;36.17;32.59;53.05;;
69609;Laerm;56815;52.320;4.858;2023-04-12T00:25:30;39.04;32.22;50.20;;
69609;Laerm;56815;52.320;4.858;2023-04-12T00:25:40;37.03;32.59;47.44;;
69609;Laerm;56815;52.320;4.858;2023-04-12T00:25:51;39.22;34.45;47.74;;
69609;Laerm;56815;52.320;4.858;2023-04-12T00:26:01;38.16;35.00;44.10;;
69609;Laerm;56815;52.320;4.858;2023-04-12T00:26:12;37.79;33.57;48.47;;
69609;Laerm;56815;52.320;4.858;2023-04-12T00:26:23;35.17;33.14;41.04;;
69609;Laerm;56815;52.320;4.858;2023-04-12T00:26:34;34.47;31.68;40.73;;
69609;Laerm;56815;52.320;4.858;2023-04-12T00:26:44;35.07;32.34;44.06;;
69609;Laerm;56815;52.320;4.858;2023-04-12T00:26:55;34.94;31.95;46.02;;
69609;Laerm;56815;52.320;4.858;2023-04-12T00:27:05;36.83;32.41;45.23;;
69609;Laerm;56815;52.320;4.858;2023-04-12T00:27:16;38.09;34.22;47.39;;
69609;Laerm;56815;52.320;4.858;2023-04-12T00:27:26;35.28;32.35;46.04;;
69609;Laerm;56815;52.320;4.858;2023-04-12T00:27:36;35.63;31.23;48.99;;
69609;Laerm;56815;52.320;4.858;2023-04-12T00:27:46;33.57;31.79;39.09;;
69609;Laerm;56815;52.320;4.858;2023-04-12T00:27:58;34.55;32.57;42.14;;
69609;Laerm;56815;52.320;4.858;2023-04-12T00:28:08;35.23;31.67;45.77;;
69609;Laerm;56815;52.320;4.858;2023-04-12T00:28:18;34.26;32.16;39.60;;
69609;Laerm;56815;52.320;4.858;2023-04-12T00:28:29;35.21;31.95;49.15;;
69609;Laerm;56815;52.320;4.858;2023-04-12T00:28:40;35.77;32.61;48.68;;
69609;Laerm;56815;52.320;4.858;2023-04-12T00:28:51;36.20;33.44;44.29;;
69609;Laerm;56815;52.320;4.858;2023-04-12T00:29:01;36.28;32.30;46.10;;
69609;Laerm;56815;52.320;4.858;2023-04-12T00:29:11;36.00;32.41;52.92;;
69609;Laerm;56815;52.320;4.858;2023-04-12T00:29:22;36.13;33.36;52.39;;
69609;Laerm;56815;52.320;4.858;2023-04-12T00:29:32;40.04;32.58;61.89;;
69609;Laerm;56815;52.320;4.858;2023-04-12T00:29:42;38.37;33.59;47.45;;
69609;Laerm;56815;52.320;4.858;2023-04-12T00:29:53;38.72;34.09;55.40;;
69609;Laerm;56815;52.320;4.858;2023-04-12T00:30:03;35.81;32.95;46.74;;
69609;Laerm;56815;52.320;4.858;2023-04-12T00:30:14;36.50;33.27;46.40;;
69609;Laerm;56815;52.320;4.858;2023-04-12T00:30:24;36.27;32.76;43.19;;
69609;Laerm;56815;52.320;4.858;2023-04-12T00:30:34;36.35;32.59;50.37;;
69609;Laerm;56815;52.320;4.858;2023-04-12T00:30:45;39.71;33.56;55.47;;
69609;Laerm;56815;52.320;4.858;2023-04-12T00:30:55;36.64;32.09;54.46;;
69609;Laerm;56815;52.320;4.858;2023-04-12T00:31:05;34.02;31.76;44.80;;
69609;Laerm;56815;52.320;4.858;2023-04-12T00:31:16;33.55;30.76;43.02;;
69609;Laerm;56815;52.320;4.858;2023-04-12T00:31:26;34.60;31.16;48.35;;
69609;Laerm;56815;52.320;4.858;2023-04-12T00:31:36;33.51;31.00;45.77;;
69609;Laerm;56815;52.320;4.858;2023-04-12T00:31:47;35.37;31.83;48.50;;
69609;Laerm;56815;52.320;4.858;2023-04-12T00:31:57;35.72;32.52;47.83;;
69609;Laerm;56815;52.320;4.858;2023-04-12T00:32:08;34.45;31.76;43.36;;
69609;Laerm;56815;52.320;4.858;2023-04-12T00:32:19;34.33;31.68;43.34;;
69609;Laerm;56815;52.320;4.858;2023-04-12T00:32:29;39.27;32.79;52.20;;
69609;Laerm;56815;52.320;4.858;2023-04-12T00:32:39;36.81;32.98;48.30;;
69609;Laerm;56815;52.320;4.858;2023-04-12T00:32:50;42.72;34.56;53.81;;
69609;Laerm;56815;52.320;4.858;2023-04-12T00:33:00;41.93;35.98;51.57;;
69609;Laerm;56815;52.320;4.858;2023-04-12T00:33:10;36.55;33.96;40.00;;
69609;Laerm;56815;52.320;4.858;2023-04-12T00:33:21;37.94;33.30;52.13;;
69609;Laerm;56815;52.320;4.858;2023-04-12T00:33:32;35.06;32.15;43.54;;
69609;Laerm;56815;52.320;4.858;2023-04-12T00:33:42;35.69;32.71;47.80;;
69609;Laerm;56815;52.320;4.858;2023-04-12T00:33:52;35.32;32.24;44.92;;
69609;Laerm;56815;52.320;4.858;2023-04-12T00:34:02;33.94;31.77;45.29;;
69609;Laerm;56815;52.320;4.858;2023-04-12T00:34:13;34.53;32.40;39.88;;
69609;Laerm;56815;52.320;4.858;2023-04-12T00:34:23;34.02;32.14;37.68;;
69609;Laerm;56815;52.320;4.858;2023-04-12T00:34:33;33.85;31.82;38.71;;
69609;Laerm;56815;52.320;4.858;2023-04-12T00:34:44;34.72;31.90;48.10;;
69609;Laerm;56815;52.320;4.858;2023-04-12T00:34:54;34.15;31.76;44.14;;
69609;Laerm;56815;52.320;4.858;2023-04-12T00:35:04;34.08;31.55;45.43;;
69609;Laerm;56815;52.320;4.858;2023-04-12T00:35:15;34.66;31.38;44.74;;
69609;Laerm;56815;52.320;4.858;2023-04-12T00:35:25;35.06;31.38;49.05;;
69609;Laerm;56815;52.320;4.858;2023-04-12T00:35:35;33.95;31.49;43.46;;
69609;Laerm;56815;52.320;4.858;2023-04-12T00:35:45;34.98;31.80;47.61;;
69609;Laerm;56815;52.320;4.858;2023-04-12T00:35:56;33.86;31.79;41.50;;
69609;Laerm;56815;52.320;4.858;2023-04-12T00:36:06;34.50;32.51;41.80;;
69609;Laerm;56815;52.320;4.858;2023-04-12T00:36:17;35.12;32.14;46.32;;
69609;Laerm;56815;52.320;4.858;2023-04-12T00:36:27;39.06;31.52;59.49;;
69609;Laerm;56815;52.320;4.858;2023-04-12T00:36:37;41.66;31.67;64.02;;
69609;Laerm;56815;52.320;4.858;2023-04-12T00:36:48;35.14;31.99;43.92;;
69609;Laerm;56815;52.320;4.858;2023-04-12T00:36:59;35.03;31.11;53.14;;
69609;Laerm;56815;52.320;4.858;2023-04-12T00:37:10;34.56;31.52;48.84;;
69609;Laerm;56815;52.320;4.858;2023-04-12T00:37:20;38.46;31.53;47.62;;
69609;Laerm;56815;52.320;4.858;2023-04-12T00:37:30;41.22;34.53;61.26;;
69609;Laerm;56815;52.320;4.858;2023-04-12T00:37:41;38.20;33.44;53.59;;
69609;Laerm;56815;52.320;4.858;2023-04-12T00:37:51;38.02;32.28;50.02;;
69609;Laerm;56815;52.320;4.858;2023-04-12T00:38:01;34.75;32.04;49.35;;
69609;Laerm;56815;52.320;4.858;2023-04-12T00:38:12;34.75;31.59;49.59;;
69609;Laerm;56815;52.320;4.858;2023-04-12T00:38:24;34.84;31.77;46.17;;
69609;Laerm;56815;52.320;4.858;2023-04-12T00:38:35;40.81;33.42;45.95;;
69609;Laerm;56815;52.320;4.858;2023-04-12T00:38:45;38.05;33.58;46.68;;
69609;Laerm;56815;52.320;4.858;2023-04-12T00:38:55;35.20;32.31;46.00;;
69609;Laerm;56815;52.320;4.858;2023-04-12T00:39:06;35.91;32.48;42.41;;
69609;Laerm;56815;52.320;4.858;2023-04-12T00:39:16;38.11;33.05;44.33;;
69609;Laerm;56815;52.320;4.858;2023-04-12T00:39:26;40.45;35.30;48.12;;
69609;Laerm;56815;52.320;4.858;2023-04-12T00:39:37;41.00;35.18;48.94;;
69609;Laerm;56815;52.320;4.858;2023-04-12T00:39:47;41.79;35.94;52.07;;
69609;Laerm;56815;52.320;4.858;2023-04-12T00:40:00;39.55;34.73;49.46;;
69609;Laerm;56815;52.320;4.858;2023-04-12T00:40:10;41.03;34.78;49.77;;
69609;Laerm;56815;52.320;4.858;2023-04-12T00:40:20;40.76;35.57;46.73;;
69609;Laerm;56815;52.320;4.858;2023-04-12T00:40:31;41.14;33.17;48.78;;
69609;Laerm;56815;52.320;4.858;2023-04-12T00:40:41;39.21;33.86;46.73;;
69609;Laerm;56815;52.320;4.858;2023-04-12T00:40:51;41.47;34.81;52.04;;
69609;Laerm;56815;52.320;4.858;2023-04-12T00:41:02;37.78;32.70;44.38;;
69609;Laerm;56815;52.320;4.858;2023-04-12T00:41:12;40.07;35.09;54.31;;
69609;Laerm;56815;52.320;4.858;2023-04-12T00:41:25;35.63;31.68;47.59;;
69609;Laerm;56815;52.320;4.858;2023-04-12T00:41:36;34.42;31.95;41.93;;
69609;Laerm;56815;52.320;4.858;2023-04-12T00:41:46;36.80;33.65;44.78;;
69609;Laerm;56815;52.320;4.858;2023-04-12T00:41:56;37.56;31.69;56.92;;
69609;Laerm;56815;52.320;4.858;2023-04-12T00:42:07;36.03;31.94;45.25;;
69609;Laerm;56815;52.320;4.858;2023-04-12T00:42:17;35.84;31.92;48.90;;
69609;Laerm;56815;52.320;4.858;2023-04-12T00:42:27;33.99;31.93;44.52;;
69609;Laerm;56815;52.320;4.858;2023-04-12T00:42:38;34.00;31.15;46.11;;
69609;Laerm;56815;52.320;4.858;2023-04-12T00:42:48;35.56;31.72;48.38;;
69609;Laerm;56815;52.320;4.858;2023-04-12T00:42:59;34.20;31.07;46.23;;
69609;Laerm;56815;52.320;4.858;2023-04-12T00:43:09;33.83;31.61;41.85;;
69609;Laerm;56815;52.320;4.858;2023-04-12T00:43:24;34.13;31.95;40.34;;
69609;Laerm;56815;52.320;4.858;2023-04-12T00:43:36;35.68;32.33;43.56;;
69609;Laerm;56815;52.320;4.858;2023-04-12T00:43:48;39.56;33.45;54.99;;
69609;Laerm;56815;52.320;4.858;2023-04-12T00:43:58;35.25;32.14;47.12;;
69609;Laerm;56815;52.320;4.858;2023-04-12T00:44:09;33.65;31.22;38.61;;
69609;Laerm;56815;52.320;4.858;2023-04-12T00:44:19;33.92;31.22;46.82;;
69609;Laerm;56815;52.320;4.858;2023-04-12T00:44:30;33.60;31.59;40.86;;
69609;Laerm;56815;52.320;4.858;2023-04-12T00:44:41;35.25;31.71;43.28;;
69609;Laerm;56815;52.320;4.858;2023-04-12T00:44:52;35.08;32.36;40.59;;
69609;Laerm;56815;52.320;4.858;2023-04-12T00:45:02;34.35;31.15;46.76;;
69609;Laerm;56815;52.320;4.858;2023-04-12T00:45:13;34.42;31.22;41.16;;
69609;Laerm;56815;52.320;4.858;2023-04-12T00:45:23;37.74;32.47;48.57;;
69609;Laerm;56815;52.320;4.858;2023-04-12T00:45:33;34.33;32.04;45.17;;
69609;Laerm;56815;52.320;4.858;2023-04-12T00:45:47;34.34;31.99;42.91;;
69609;Laerm;56815;52.320;4.858;2023-04-12T00:45:58;34.75;31.34;49.10;;
69609;Laerm;56815;52.320;4.858;2023-04-12T00:46:08;34.93;31.49;46.43;;
69609;Laerm;56815;52.320;4.858;2023-04-12T00:46:20;36.10;32.34;51.31;;
69609;Laerm;56815;52.320;4.858;2023-04-12T00:46:31;34.74;32.29;45.42;;
69609;Laerm;56815;52.320;4.858;2023-04-12T00:46:41;34.99;31.21;49.04;;
69609;Laerm;56815;52.320;4.858;2023-04-12T00:46:51;33.58;30.87;43.12;;
69609;Laerm;56815;52.320;4.858;2023-04-12T00:47:04;34.90;30.97;49.18;;
69609;Laerm;56815;52.320;4.858;2023-04-12T00:47:15;33.01;30.90;40.80;;
69609;Laerm;56815;52.320;4.858;2023-04-12T00:47:26;33.14;30.45;45.30;;
69609;Laerm;56815;52.320;4.858;2023-04-12T00:47:39;37.98;30.60;58.35;;
69609;Laerm;56815;52.320;4.858;2023-04-12T00:47:51;32.54;30.37;42.29;;
69609;Laerm;56815;52.320;4.858;2023-04-12T00:48:04;32.48;30.35;41.68;;
69609;Laerm;56815;52.320;4.858;2023-04-12T00:48:14;33.17;30.42;48.12;;
69609;Laerm;56815;52.320;4.858;2023-04-12T00:48:25;34.49;30.58;49.39;;
69609;Laerm;56815;52.320;4.858;2023-04-12T00:48:36;32.75;30.35;41.01;;
69609;Laerm;56815;52.320;4.858;2023-04-12T00:48:47;33.78;31.01;47.24;;
69609;Laerm;56815;52.320;4.858;2023-04-12T00:48:58;33.97;30.55;50.82;;
69609;Laerm;56815;52.320;4.858;2023-04-12T00:49:08;32.95;30.23;45.95;;
69609;Laerm;56815;52.320;4.858;2023-04-12T00:49:18;33.36;30.56;44.41;;
69609;Laerm;56815;52.320;4.858;2023-04-12T00:49:29;33.33;30.51;43.30;;
69609;Laerm;56815;52.320;4.858;2023-04-12T00:49:40;32.70;30.34;36.99;;
69609;Laerm;56815;52.320;4.858;2023-04-12T00:49:50;32.78;31.03;37.61;;
69609;Laerm;56815;52.320;4.858;2023-04-12T00:50:01;32.71;30.40;41.91;;
69609;Laerm;56815;52.320;4.858;2023-04-12T00:50:12;32.41;30.39;40.94;;
69609;Laerm;56815;52.320;4.858;2023-04-12T00:50:23;33.23;30.84;44.97;;
69609;Laerm;56815;52.320;4.858;2023-04-12T00:50:33;35.99;31.49;49.12;;
69609;Laerm;56815;52.320;4.858;2023-04-12T00:50:44;36.42;32.89;45.16;;
69609;Laerm;56815;52.320;4.858;2023-04-12T00:50:55;38.11;32.85;45.36;;
69609;Laerm;56815;52.320;4.858;2023-04-12T00:51:06;34.30;32.03;43.48;;
69609;Laerm;56815;52.320;4.858;2023-04-12T00:51:17;34.87;31.38;44.42;;
69609;Laerm;56815;52.320;4.858;2023-04-12T00:51:31;35.35;32.17;47.66;;
69609;Laerm;56815;52.320;4.858;2023-04-12T00:51:42;37.89;32.95;53.33;;
69609;Laerm;56815;52.320;4.858;2023-04-12T00:51:52;40.89;34.05;48.46;;
69609;Laerm;56815;52.320;4.858;2023-04-12T00:52:03;35.48;32.10;47.41;;
69609;Laerm;56815;52.320;4.858;2023-04-12T00:52:14;34.26;31.46;42.11;;
69609;Laerm;56815;52.320;4.858;2023-04-12T00:52:27;33.28;31.15;44.19;;
69609;Laerm;56815;52.320;4.858;2023-04-12T00:52:43;32.95;30.76;42.35;;
69609;Laerm;56815;52.320;4.858;2023-04-12T00:52:53;33.79;30.93;49.79;;
69609;Laerm;56815;52.320;4.858;2023-04-12T00:53:04;34.54;31.01;47.28;;
69609;Laerm;56815;52.320;4.858;2023-04-12T00:53:15;35.08;31.81;45.10;;
69609;Laerm;56815;52.320;4.858;2023-04-12T00:53:26;36.58;32.63;56.82;;
69609;Laerm;56815;52.320;4.858;2023-04-12T00:53:37;36.94;32.23;46.79;;
69609;Laerm;56815;52.320;4.858;2023-04-12T00:53:48;38.45;33.03;47.88;;
69609;Laerm;56815;52.320;4.858;2023-04-12T00:54:02;34.96;32.00;50.37;;
69609;Laerm;56815;52.320;4.858;2023-04-12T00:54:12;34.08;31.33;45.09;;
69609;Laerm;56815;52.320;4.858;2023-04-12T00:54:23;35.40;32.63;41.86;;
69609;Laerm;56815;52.320;4.858;2023-04-12T00:54:34;35.72;32.96;42.89;;
69609;Laerm;56815;52.320;4.858;2023-04-12T00:54:45;35.78;33.08;42.18;;
69609;Laerm;56815;52.320;4.858;2023-04-12T00:54:55;39.23;33.37;50.23;;
69609;Laerm;56815;52.320;4.858;2023-04-12T00:55:06;35.51;31.15;52.31;;
69609;Laerm;56815;52.320;4.858;2023-04-12T00:55:18;33.32;30.84;43.38;;
69609;Laerm;56815;52.320;4.858;2023-04-12T00:55:29;33.59;31.56;40.13;;
69609;Laerm;56815;52.320;4.858;2023-04-12T00:55:42;36.85;31.94;48.24;;
69609;Laerm;56815;52.320;4.858;2023-04-12T00:55:53;37.86;31.94;51.32;;
69609;Laerm;56815;52.320;4.858;2023-04-12T00:56:04;33.47;31.18;42.44;;
69609;Laerm;56815;52.320;4.858;2023-04-12T00:56:14;33.41;30.92;44.31;;
69609;Laerm;56815;52.320;4.858;2023-04-12T00:56:25;36.16;31.27;45.75;;
69609;Laerm;56815;52.320;4.858;2023-04-12T00:56:37;36.85;31.76;51.65;;
69609;Laerm;56815;52.320;4.858;2023-04-12T00:56:49;34.54;31.14;41.53;;
69609;Laerm;56815;52.320;4.858;2023-04-12T00:57:00;36.22;32.44;46.29;;
69609;Laerm;56815;52.320;4.858;2023-04-12T00:57:10;34.42;31.41;46.29;;
69609;Laerm;56815;52.320;4.858;2023-04-12T00:57:21;33.11;31.28;36.13;;
69609;Laerm;56815;52.320;4.858;2023-04-12T00:57:33;33.16;31.47;35.57;;
69609;Laerm;56815;52.320;4.858;2023-04-12T00:57:44;33.00;31.29;37.66;;
69609;Laerm;56815;52.320;4.858;2023-04-12T00:57:55;33.04;30.94;45.37;;
69609;Laerm;56815;52.320;4.858;2023-04-12T00:58:06;36.01;31.06;55.49;;
69609;Laerm;56815;52.320;4.858;2023-04-12T00:58:17;33.88;32.12;38.70;;
69609;Laerm;56815;52.320;4.858;2023-04-12T00:58:27;33.13;31.09;37.84;;
69609;Laerm;56815;52.320;4.858;2023-04-12T00:58:37;34.53;31.88;49.35;;
69609;Laerm;56815;52.320;4.858;2023-04-12T00:58:48;35.55;32.86;44.48;;
69609;Laerm;56815;52.320;4.858;2023-04-12T00:58:58;35.90;32.76;43.44;;
69609;Laerm;56815;52.320;4.858;2023-04-12T00:59:08;34.17;31.88;43.73;;
69609;Laerm;56815;52.320;4.858;2023-04-12T00:59:19;34.48;32.45;45.25;;
69609;Laerm;56815;52.320;4.858;2023-04-12T00:59:29;32.86;31.08;37.38;;
69609;Laerm;56815;52.320;4.858;2023-04-12T00:59:40;39.29;31.92;59.82;;
69609;Laerm;56815;52.320;4.858;2023-04-12T00:59:50;33.30;31.38;38.62;;
69609;Laerm;56815;52.320;4.858;2023-04-12T01:00:01;33.60;31.56;43.22;;
69609;Laerm;56815;52.320;4.858;2023-04-12T01:00:11;34.61;31.51;40.79;;
69609;Laerm;56815;52.320;4.858;2023-04-12T01:00:22;35.66;31.21;50.69;;
69609;Laerm;56815;52.320;4.858;2023-04-12T01:00:32;40.36;31.87;61.33;;
69609;Laerm;56815;52.320;4.858;2023-04-12T01:00:43;34.61;31.08;44.79;;
69609;Laerm;56815;52.320;4.858;2023-04-12T01:00:59;33.31;30.96;36.49;;